2014 Alcatraz Sharkfest Swim

Saturday, June 7, 2014 8:20 AM (GMT-7) - Final results

Race info
Sport: Swimming - open water
Location: San Francisco, CA, United States
Start type: Mass start
Racers: 59
Timed on: Other
Timed with: Chip timing
Updated: Thursday, October 18, 2018 3:56 PM (GMT-7)
Organized by: Enviro-Sports
Race website: www.sharkfestswim.com

Contact organizer

Use this form to send an email to the organizer.

Your name
Your email address
Confirm email address
Message to organizer
Send

Place Bib Racer name Affiliation Category Age Gender Finish time
1138Anders BrennaSandvika Norway M353939M 33:04.5--100%40.29%39.54%
2200David ColeSan Carlos CA M353938M 35:00.1+1:55.6+5.83%94.50%36.81%36.02%
3269Kevin DonlonTurlock CA M353935M 36:30.3+3:25.8+10.37%90.60%34.10%33.27%
4635Alexander LundingWest Simsbury CT M353937M 36:36.9+3:32.4+10.70%90.33%33.90%33.07%
5510Matthew JanessLas Vegas NV M353936M 37:45.1+4:40.6+14.14%87.61%31.85%30.99%
637Matt AriasDurango CO M353939M 38:32.1+5:27.6+16.51%85.83%30.43%29.56%
7554Jeremy KishMoraga CA M353938M 38:46.6+5:42.1+17.24%85.30%30.00%29.12%
81033Brian TrimmerReno NV M353937M 39:09.8+6:05.3+18.41%84.45%29.30%28.41%
9586Todd LawrenceSan Ramon CA M353938M 40:07.2+7:02.7+21.30%82.44%27.57%26.67%
10692Tim McNamaraBenicia CA M353939M 41:23.8+8:19.3+25.16%79.90%25.27%24.33%
111038VIJAY UPPALOakland CA M353937M 41:51.7+8:47.2+26.57%79.01%24.43%23.48%
12425J-P HannumEl Dorado Hills CA M353938M 42:40.4+9:35.9+29.02%77.51%22.96%22.00%
131040Jon Egil UrsinSaetre Norway M353937M 42:46.4+9:41.9+29.32%77.33%22.78%21.82%
14550Brian KingstonManhattan Beach CA M353939M 43:27.3+10:22.8+31.38%76.11%21.55%20.57%
15221Craig CoucheScottsdale AZ M353935M 43:47.6+10:43.1+32.41%75.53%20.94%19.95%
16387Maurice GoodenLong Beach CA M353937M 43:50.8+10:46.3+32.57%75.43%20.85%19.85%
17850Andrew Reeddumfries UK M353938M 45:31.4+12:26.9+37.64%72.66%17.82%16.79%
18400David GreeneSanta Monica CA M353935M 46:22.5+13:18.0+40.21%71.32%16.28%15.23%
19334Andrew FoxFort Collins CO M353936M 46:54.0+13:49.5+41.80%70.52%15.33%14.27%
20796John PattersonTempe AZ M353939M 48:00.9+14:56.4+45.17%68.88%13.32%12.23%
21767Neil O'BrienSanta Monica CA M353936M 48:24.5+15:20.0+46.36%68.33%12.61%11.52%
22904Amrick SandhuSacramento CA M353935M 48:34.6+15:30.1+46.87%68.09%12.31%11.21%
23821Graham PolesMorgan Hill CA M353935M 51:32.8+18:28.3+55.85%64.17%6.95%5.78%
24305Astolfo FeregrinoChula Vista CA M353935M 52:10.0+19:05.5+57.72%63.40%5.83%4.65%
25854Zach ReevesMonterey CA M353937M 52:10.6+19:06.1+57.75%63.39%5.81%4.63%
26705Patrick MeuryBasel Switzerland M353937M 53:27.3+20:22.8+61.62%61.87%3.50%2.29%
27403Brent GriebenowHermosa Beach CA M353935M 53:31.1+20:26.6+61.81%61.80%3.39%2.18%
28350Greg GalloMenlo park CA M353939M 53:47.5+20:43.0+62.64%61.49%2.89%1.68%
29107Ryan BoriskinDublin CA M353937M 54:36.4+21:31.9+65.10%60.57%1.42%0.19%
30518Michael JensenOakland CA M353939M 54:42.5+21:38.0+65.41%60.46%1.24%0.00%
31911Mike ScannellNew Boston MI M353938M 55:48.7+22:44.2+68.74%59.26%-0.75%-2.02%
32857Regis ReverchonSan Ramon CA M353936M 55:57.7+22:53.2+69.20%59.10%-1.02%-2.29%
33707Craig MillerWest Long Branch NJ M353937M 57:36.7+24:32.2+74.18%57.41%-4.00%-5.31%
341084Kent WeirichSan Francisco CA M353937M 58:46.9+25:42.4+77.72%56.27%-6.12%-7.45%
351069Garrett VygantasSan Francisco CA M353937M 59:18.0+26:13.5+79.29%55.78%-7.05%-8.39%
36180Leo ChengSan Francisco CA M353937M 1:00:19.4+27:14.9+82.38%54.83%-8.90%-10.26%
37426Ed HansenDanville CA M353939M 1:00:46.0+27:41.5+83.72%54.43%-9.70%-11.07%
38304David FeinleibSan Francisco CA M353939M 1:01:00.2+27:55.7+84.44%54.22%-10.13%-11.51%
39808Scott PetCorte Madera CA M353935M 1:01:49.8+28:45.3+86.94%53.49%-11.62%-13.02%
40612David LiuConcord CA M353938M 1:02:13.4+29:08.9+88.13%53.16%-12.33%-13.74%
41763Scott NylundThe Woodlands TX M353935M 1:02:40.7+29:36.2+89.50%52.77%-13.15%-14.57%
42861Yongrim RheeVienna VA M353938M 1:02:44.2+29:39.7+89.68%52.72%-13.26%-14.67%
43708Dewitt MillerLarkspur CA M353935M 1:02:49.4+29:44.9+89.94%52.65%-13.41%-14.83%
44582Derek LauterjungAustin TX M353939M 1:03:25.2+30:20.7+91.75%52.15%-14.49%-15.92%
45737Jeremy MuchaSan Diego CA M353937M 1:03:42.5+30:38.0+92.62%51.92%-15.01%-16.45%
46318Brian FitzpatrickLos Gatos CA M353936M 1:06:19.1+33:14.6+100.51%49.87%-19.72%-21.22%
47822Stephen PolesRogers MN M353939M 1:07:06.7+34:02.2+102.91%49.28%-21.15%-22.67%
48865Paul RigbyTownsville AUSTRALIA M353936M 1:07:32.3+34:27.8+104.20%48.97%-21.92%-23.45%
49194Donnie CoateStockton CA M353936M 1:08:09.8+35:05.3+106.09%48.52%-23.05%-24.59%
50468FERNANDO HOLGUIN CASASCiudad Juarez Mexico M353935M 1:08:36.9+35:32.4+107.45%48.20%-23.87%-25.42%
51326Sean FlynnLomita CA M353938M 1:08:58.2+35:53.7+108.53%47.96%-24.51%-26.07%
52191James ClarkOakland CA M353938M 1:09:11.7+36:07.2+109.21%47.80%-24.91%-26.48%
5353Eric BakCastro Valley CA M353936M 1:10:37.9+37:33.4+113.55%46.83%-27.51%-29.11%
54792Jason ParrSan Francisco CA M353935M 1:11:31.2+38:26.7+116.24%46.25%-29.11%-30.73%
55835Raj RahejaSan Francisco CA M353935M 1:17:10.7+44:06.2+133.34%42.86%-39.33%-41.07%
561111Tom WilliamsBolton UK M353939M 1:18:59.5+45:55.0+138.83%41.87%-42.60%-44.39%
5764Rob BalucasSan Francisco CA M353936M 1:19:00.3+45:55.8+138.87%41.86%-42.62%-44.41%
58463Christon HillRedwood City CA M353937M 1:19:09.4+46:04.9+139.32%41.78%-42.90%-44.69%
59148Jake BurkettLas Vegas NV M353939M 1:21:45.5+48:41.0+147.19%40.45%-47.59%-49.44%